sensor_id;sensor_type;location;lat;lon;timestamp;temperature;humidity
49441;DHT22;35317;51.978;6.296;2023-08-12T00:01:44;22.00;99.90
49441;DHT22;35317;51.978;6.296;2023-08-12T00:06:45;22.00;99.90
49441;DHT22;35317;51.978;6.296;2023-08-12T00:11:46;22.00;99.90
49441;DHT22;35317;51.978;6.296;2023-08-12T00:16:47;21.90;99.90
49441;DHT22;35317;51.978;6.296;2023-08-12T00:21:48;21.90;99.90
49441;DHT22;35317;51.978;6.296;2023-08-12T00:26:48;21.90;99.90
49441;DHT22;35317;51.978;6.296;2023-08-12T00:31:49;21.80;99.90
49441;DHT22;35317;51.978;6.296;2023-08-12T00:36:50;21.80;99.90
49441;DHT22;35317;51.978;6.296;2023-08-12T00:41:51;21.80;99.90
49441;DHT22;35317;51.978;6.296;2023-08-12T00:46:52;21.80;99.90
49441;DHT22;35317;51.978;6.296;2023-08-12T00:51:54;21.80;99.90
49441;DHT22;35317;51.978;6.296;2023-08-12T00:56:55;21.70;99.90
49441;DHT22;35317;51.978;6.296;2023-08-12T01:01:56;21.70;99.90
49441;DHT22;35317;51.978;6.296;2023-08-12T01:06:57;21.70;99.90
49441;DHT22;35317;51.978;6.296;2023-08-12T01:12:05;21.60;99.90
49441;DHT22;35317;51.978;6.296;2023-08-12T01:17:09;21.60;99.90
49441;DHT22;35317;51.978;6.296;2023-08-12T01:22:12;21.60;99.90
49441;DHT22;35317;51.978;6.296;2023-08-12T01:27:13;21.60;99.90
49441;DHT22;35317;51.978;6.296;2023-08-12T01:32:23;21.60;99.90
49441;DHT22;35317;51.978;6.296;2023-08-12T01:37:38;21.60;99.90
49441;DHT22;35317;51.978;6.296;2023-08-12T01:42:40;21.60;99.90
49441;DHT22;35317;51.978;6.296;2023-08-12T01:47:45;21.50;99.90
49441;DHT22;35317;51.978;6.296;2023-08-12T01:52:45;21.60;99.90
49441;DHT22;35317;51.978;6.296;2023-08-12T01:57:46;21.60;99.90
49441;DHT22;35317;51.978;6.296;2023-08-12T02:02:47;21.60;99.90
49441;DHT22;35317;51.978;6.296;2023-08-12T02:07:48;21.60;99.90
49441;DHT22;35317;51.978;6.296;2023-08-12T02:12:48;21.60;99.90
49441;DHT22;35317;51.978;6.296;2023-08-12T02:17:49;21.60;99.90
49441;DHT22;35317;51.978;6.296;2023-08-12T02:22:50;21.50;99.90
49441;DHT22;35317;51.978;6.296;2023-08-12T02:27:51;21.50;99.90
49441;DHT22;35317;51.978;6.296;2023-08-12T02:32:52;21.50;99.90
49441;DHT22;35317;51.978;6.296;2023-08-12T02:37:52;21.50;99.90
49441;DHT22;35317;51.978;6.296;2023-08-12T02:42:53;21.50;99.90
49441;DHT22;35317;51.978;6.296;2023-08-12T02:47:54;21.50;99.90
49441;DHT22;35317;51.978;6.296;2023-08-12T02:52:55;21.50;99.90
49441;DHT22;35317;51.978;6.296;2023-08-12T02:57:56;21.40;99.90
49441;DHT22;35317;51.978;6.296;2023-08-12T03:02:56;21.40;99.90
49441;DHT22;35317;51.978;6.296;2023-08-12T03:07:57;21.40;99.90
49441;DHT22;35317;51.978;6.296;2023-08-12T03:13:01;21.40;99.90
49441;DHT22;35317;51.978;6.296;2023-08-12T03:18:02;21.40;99.90
49441;DHT22;35317;51.978;6.296;2023-08-12T03:23:03;21.40;99.90
49441;DHT22;35317;51.978;6.296;2023-08-12T03:28:04;21.30;99.90
49441;DHT22;35317;51.978;6.296;2023-08-12T03:33:05;21.30;99.90
49441;DHT22;35317;51.978;6.296;2023-08-12T03:38:06;21.40;99.90
49441;DHT22;35317;51.978;6.296;2023-08-12T03:43:07;21.30;99.90
49441;DHT22;35317;51.978;6.296;2023-08-12T03:48:08;21.20;99.90
49441;DHT22;35317;51.978;6.296;2023-08-12T03:53:09;21.20;99.90
49441;DHT22;35317;51.978;6.296;2023-08-12T03:58:10;21.30;99.90
49441;DHT22;35317;51.978;6.296;2023-08-12T04:03:10;21.30;99.90
49441;DHT22;35317;51.978;6.296;2023-08-12T04:08:11;21.20;99.90
49441;DHT22;35317;51.978;6.296;2023-08-12T04:13:12;21.20;99.90
49441;DHT22;35317;51.978;6.296;2023-08-12T04:18:13;21.20;99.90
49441;DHT22;35317;51.978;6.296;2023-08-12T04:23:14;21.20;99.90
49441;DHT22;35317;51.978;6.296;2023-08-12T04:28:15;21.20;99.90
49441;DHT22;35317;51.978;6.296;2023-08-12T04:33:16;21.10;99.90
49441;DHT22;35317;51.978;6.296;2023-08-12T04:38:17;21.20;99.90
49441;DHT22;35317;51.978;6.296;2023-08-12T04:43:18;21.10;99.90
49441;DHT22;35317;51.978;6.296;2023-08-12T04:48:19;21.10;99.90
49441;DHT22;35317;51.978;6.296;2023-08-12T04:53:20;21.10;99.90
49441;DHT22;35317;51.978;6.296;2023-08-12T04:58:20;21.10;99.90
49441;DHT22;35317;51.978;6.296;2023-08-12T05:03:21;21.10;99.90
49441;DHT22;35317;51.978;6.296;2023-08-12T05:08:22;21.10;99.90
49441;DHT22;35317;51.978;6.296;2023-08-12T05:13:23;21.20;99.90
49441;DHT22;35317;51.978;6.296;2023-08-12T05:18:24;21.30;99.90
49441;DHT22;35317;51.978;6.296;2023-08-12T05:23:24;21.50;99.90
49441;DHT22;35317;51.978;6.296;2023-08-12T05:28:25;21.60;99.90
49441;DHT22;35317;51.978;6.296;2023-08-12T05:33:26;21.70;99.90
49441;DHT22;35317;51.978;6.296;2023-08-12T05:38:27;21.80;99.90
49441;DHT22;35317;51.978;6.296;2023-08-12T05:43:28;21.80;99.90
49441;DHT22;35317;51.978;6.296;2023-08-12T05:48:28;21.80;99.90
49441;DHT22;35317;51.978;6.296;2023-08-12T05:53:29;21.80;99.90
49441;DHT22;35317;51.978;6.296;2023-08-12T05:58:30;21.70;99.90
49441;DHT22;35317;51.978;6.296;2023-08-12T06:03:31;21.70;99.90
49441;DHT22;35317;51.978;6.296;2023-08-12T06:08:31;21.70;99.90
49441;DHT22;35317;51.978;6.296;2023-08-12T06:13:32;21.60;99.90
49441;DHT22;35317;51.978;6.296;2023-08-12T06:18:33;21.50;99.90
49441;DHT22;35317;51.978;6.296;2023-08-12T06:23:34;21.30;99.90
49441;DHT22;35317;51.978;6.296;2023-08-12T06:28:35;21.20;99.90
49441;DHT22;35317;51.978;6.296;2023-08-12T06:33:35;21.20;99.90
49441;DHT22;35317;51.978;6.296;2023-08-12T06:38:36;21.10;99.90
49441;DHT22;35317;51.978;6.296;2023-08-12T06:43:37;20.90;99.90
49441;DHT22;35317;51.978;6.296;2023-08-12T06:48:38;20.80;99.90
49441;DHT22;35317;51.978;6.296;2023-08-12T06:53:39;20.80;99.90
49441;DHT22;35317;51.978;6.296;2023-08-12T06:58:40;20.80;99.90
49441;DHT22;35317;51.978;6.296;2023-08-12T07:03:41;20.70;99.90
49441;DHT22;35317;51.978;6.296;2023-08-12T07:08:41;20.70;99.90
49441;DHT22;35317;51.978;6.296;2023-08-12T07:13:42;20.70;99.90
49441;DHT22;35317;51.978;6.296;2023-08-12T07:18:46;20.70;99.90
49441;DHT22;35317;51.978;6.296;2023-08-12T07:23:47;20.70;99.90
49441;DHT22;35317;51.978;6.296;2023-08-12T07:28:48;20.70;99.90
49441;DHT22;35317;51.978;6.296;2023-08-12T07:33:48;20.70;99.90
49441;DHT22;35317;51.978;6.296;2023-08-12T07:38:49;20.70;99.90
49441;DHT22;35317;51.978;6.296;2023-08-12T07:43:50;20.70;99.90
49441;DHT22;35317;51.978;6.296;2023-08-12T07:48:51;20.70;99.90
49441;DHT22;35317;51.978;6.296;2023-08-12T07:53:52;20.70;99.90
49441;DHT22;35317;51.978;6.296;2023-08-12T07:58:53;20.80;99.90
49441;DHT22;35317;51.978;6.296;2023-08-12T08:03:53;20.80;99.90
49441;DHT22;35317;51.978;6.296;2023-08-12T08:08:54;20.90;99.90
49441;DHT22;35317;51.978;6.296;2023-08-12T08:13:57;21.00;99.90
49441;DHT22;35317;51.978;6.296;2023-08-12T08:18:58;21.00;99.90
49441;DHT22;35317;51.978;6.296;2023-08-12T08:23:58;21.10;99.90
49441;DHT22;35317;51.978;6.296;2023-08-12T08:28:59;21.10;99.90
49441;DHT22;35317;51.978;6.296;2023-08-12T08:34:00;21.10;99.90
49441;DHT22;35317;51.978;6.296;2023-08-12T08:39:01;21.30;99.90
49441;DHT22;35317;51.978;6.296;2023-08-12T08:44:02;21.50;99.90
49441;DHT22;35317;51.978;6.296;2023-08-12T08:49:08;21.60;99.90
49441;DHT22;35317;51.978;6.296;2023-08-12T08:54:09;21.70;99.90
49441;DHT22;35317;51.978;6.296;2023-08-12T08:59:11;21.80;99.90
49441;DHT22;35317;51.978;6.296;2023-08-12T09:04:12;21.90;99.90
49441;DHT22;35317;51.978;6.296;2023-08-12T09:09:16;21.90;99.90
49441;DHT22;35317;51.978;6.296;2023-08-12T09:14:18;21.90;99.90
49441;DHT22;35317;51.978;6.296;2023-08-12T09:19:18;22.00;99.90
49441;DHT22;35317;51.978;6.296;2023-08-12T09:24:26;22.00;99.90
49441;DHT22;35317;51.978;6.296;2023-08-12T09:29:31;21.90;99.90
49441;DHT22;35317;51.978;6.296;2023-08-12T09:34:33;21.90;99.90
49441;DHT22;35317;51.978;6.296;2023-08-12T09:39:34;21.90;99.90
49441;DHT22;35317;51.978;6.296;2023-08-12T09:44:36;21.90;99.90
49441;DHT22;35317;51.978;6.296;2023-08-12T09:49:41;21.90;99.90
49441;DHT22;35317;51.978;6.296;2023-08-12T09:54:41;21.90;99.90
49441;DHT22;35317;51.978;6.296;2023-08-12T09:59:45;22.00;99.90
49441;DHT22;35317;51.978;6.296;2023-08-12T10:04:48;22.20;99.90
49441;DHT22;35317;51.978;6.296;2023-08-12T10:09:51;22.40;99.90
49441;DHT22;35317;51.978;6.296;2023-08-12T10:14:52;22.50;99.90
49441;DHT22;35317;51.978;6.296;2023-08-12T10:19:56;22.50;99.90
49441;DHT22;35317;51.978;6.296;2023-08-12T10:25:02;22.50;99.90
49441;DHT22;35317;51.978;6.296;2023-08-12T10:30:05;22.60;99.90
49441;DHT22;35317;51.978;6.296;2023-08-12T10:35:07;22.80;99.90
49441;DHT22;35317;51.978;6.296;2023-08-12T10:40:20;23.10;99.90
49441;DHT22;35317;51.978;6.296;2023-08-12T10:45:21;23.40;99.90
49441;DHT22;35317;51.978;6.296;2023-08-12T10:50:25;23.40;99.90
49441;DHT22;35317;51.978;6.296;2023-08-12T10:55:26;23.50;99.90
49441;DHT22;35317;51.978;6.296;2023-08-12T11:00:29;23.60;99.90
49441;DHT22;35317;51.978;6.296;2023-08-12T11:05:37;23.70;99.90
49441;DHT22;35317;51.978;6.296;2023-08-12T11:10:38;24.10;99.90
49441;DHT22;35317;51.978;6.296;2023-08-12T11:15:43;24.00;99.90
49441;DHT22;35317;51.978;6.296;2023-08-12T11:20:49;24.20;99.90
49441;DHT22;35317;51.978;6.296;2023-08-12T11:25:50;24.40;99.90
49441;DHT22;35317;51.978;6.296;2023-08-12T11:30:51;24.50;99.60
49441;DHT22;35317;51.978;6.296;2023-08-12T11:35:51;24.00;99.30
49441;DHT22;35317;51.978;6.296;2023-08-12T11:40:52;23.90;99.50
49441;DHT22;35317;51.978;6.296;2023-08-12T11:45:55;23.80;99.80
49441;DHT22;35317;51.978;6.296;2023-08-12T11:50:57;23.90;99.70
49441;DHT22;35317;51.978;6.296;2023-08-12T11:55:58;24.00;99.10
49441;DHT22;35317;51.978;6.296;2023-08-12T12:00:59;24.30;98.20
49441;DHT22;35317;51.978;6.296;2023-08-12T12:06:00;24.20;97.20
49441;DHT22;35317;51.978;6.296;2023-08-12T12:11:07;24.00;97.10
49441;DHT22;35317;51.978;6.296;2023-08-12T12:16:10;23.90;96.90
49441;DHT22;35317;51.978;6.296;2023-08-12T12:21:12;24.10;96.20
49441;DHT22;35317;51.978;6.296;2023-08-12T12:26:22;24.50;95.50
49441;DHT22;35317;51.978;6.296;2023-08-12T12:31:23;24.60;94.90
49441;DHT22;35317;51.978;6.296;2023-08-12T12:36:24;24.50;94.30
49441;DHT22;35317;51.978;6.296;2023-08-12T12:41:24;24.50;93.60
49441;DHT22;35317;51.978;6.296;2023-08-12T12:46:25;24.60;92.50
49441;DHT22;35317;51.978;6.296;2023-08-12T12:51:26;24.80;91.40
49441;DHT22;35317;51.978;6.296;2023-08-12T12:56:27;25.00;90.30
49441;DHT22;35317;51.978;6.296;2023-08-12T13:01:28;25.00;90.20
49441;DHT22;35317;51.978;6.296;2023-08-12T13:06:29;25.20;89.30
49441;DHT22;35317;51.978;6.296;2023-08-12T13:11:31;25.20;87.30
49441;DHT22;35317;51.978;6.296;2023-08-12T13:16:33;25.20;87.20
49441;DHT22;35317;51.978;6.296;2023-08-12T13:21:33;25.40;87.20
49441;DHT22;35317;51.978;6.296;2023-08-12T13:26:35;25.50;86.40
49441;DHT22;35317;51.978;6.296;2023-08-12T13:31:35;25.50;85.60
49441;DHT22;35317;51.978;6.296;2023-08-12T13:36:36;25.60;84.20
49441;DHT22;35317;51.978;6.296;2023-08-12T13:41:37;25.50;84.30
49441;DHT22;35317;51.978;6.296;2023-08-12T13:46:37;25.70;83.60
49441;DHT22;35317;51.978;6.296;2023-08-12T13:51:38;25.80;82.00
49441;DHT22;35317;51.978;6.296;2023-08-12T13:56:39;25.80;82.30
49441;DHT22;35317;51.978;6.296;2023-08-12T14:01:40;26.00;81.80
49441;DHT22;35317;51.978;6.296;2023-08-12T14:06:41;26.30;81.20
49441;DHT22;35317;51.978;6.296;2023-08-12T14:11:41;26.40;78.90
49441;DHT22;35317;51.978;6.296;2023-08-12T14:16:42;26.40;78.40
49441;DHT22;35317;51.978;6.296;2023-08-12T14:21:43;26.30;77.40
49441;DHT22;35317;51.978;6.296;2023-08-12T14:26:44;26.30;76.70
49441;DHT22;35317;51.978;6.296;2023-08-12T14:31:45;26.30;75.00
49441;DHT22;35317;51.978;6.296;2023-08-12T14:36:45;26.20;76.10
49441;DHT22;35317;51.978;6.296;2023-08-12T14:41:46;26.10;77.00
49441;DHT22;35317;51.978;6.296;2023-08-12T14:46:47;26.00;77.10
49441;DHT22;35317;51.978;6.296;2023-08-12T14:51:47;26.00;77.90
49441;DHT22;35317;51.978;6.296;2023-08-12T14:56:48;26.40;78.30
49441;DHT22;35317;51.978;6.296;2023-08-12T15:01:49;26.70;72.40
49441;DHT22;35317;51.978;6.296;2023-08-12T15:06:50;26.80;70.10
49441;DHT22;35317;51.978;6.296;2023-08-12T15:11:50;27.10;69.40
49441;DHT22;35317;51.978;6.296;2023-08-12T15:16:52;27.40;69.20
49441;DHT22;35317;51.978;6.296;2023-08-12T15:21:56;27.50;66.20
49441;DHT22;35317;51.978;6.296;2023-08-12T15:26:58;27.50;65.80
49441;DHT22;35317;51.978;6.296;2023-08-12T15:31:59;27.50;64.30
49441;DHT22;35317;51.978;6.296;2023-08-12T15:36:59;27.40;64.30
49441;DHT22;35317;51.978;6.296;2023-08-12T15:42:00;27.50;63.60
49441;DHT22;35317;51.978;6.296;2023-08-12T15:47:01;27.40;62.50
49441;DHT22;35317;51.978;6.296;2023-08-12T15:52:02;27.40;62.50
49441;DHT22;35317;51.978;6.296;2023-08-12T15:57:03;27.40;62.80
49441;DHT22;35317;51.978;6.296;2023-08-12T16:02:04;27.60;63.40
49441;DHT22;35317;51.978;6.296;2023-08-12T16:07:05;27.60;62.40
49441;DHT22;35317;51.978;6.296;2023-08-12T16:12:06;27.60;61.90
49441;DHT22;35317;51.978;6.296;2023-08-12T16:17:06;27.60;60.40
49441;DHT22;35317;51.978;6.296;2023-08-12T16:22:09;27.50;60.20
49441;DHT22;35317;51.978;6.296;2023-08-12T16:27:09;27.10;60.40
49441;DHT22;35317;51.978;6.296;2023-08-12T16:32:10;26.80;61.00
49441;DHT22;35317;51.978;6.296;2023-08-12T16:37:11;26.30;63.10
49441;DHT22;35317;51.978;6.296;2023-08-12T16:42:12;25.90;64.30
49441;DHT22;35317;51.978;6.296;2023-08-12T16:47:13;25.60;65.30
49441;DHT22;35317;51.978;6.296;2023-08-12T16:52:13;25.40;65.90
49441;DHT22;35317;51.978;6.296;2023-08-12T16:57:14;25.40;66.50
49441;DHT22;35317;51.978;6.296;2023-08-12T17:02:15;25.30;67.60
49441;DHT22;35317;51.978;6.296;2023-08-12T17:07:16;25.00;68.30
49441;DHT22;35317;51.978;6.296;2023-08-12T17:12:16;24.80;69.20
49441;DHT22;35317;51.978;6.296;2023-08-12T17:17:17;24.60;69.80
49441;DHT22;35317;51.978;6.296;2023-08-12T17:22:18;24.30;70.30
49441;DHT22;35317;51.978;6.296;2023-08-12T17:27:19;24.20;70.80
49441;DHT22;35317;51.978;6.296;2023-08-12T17:32:20;24.00;71.80
49441;DHT22;35317;51.978;6.296;2023-08-12T17:37:24;23.80;72.70
49441;DHT22;35317;51.978;6.296;2023-08-12T17:42:25;23.60;73.60
49441;DHT22;35317;51.978;6.296;2023-08-12T17:47:25;23.40;74.50
49441;DHT22;35317;51.978;6.296;2023-08-12T17:52:26;23.40;75.30
49441;DHT22;35317;51.978;6.296;2023-08-12T17:57:27;23.30;75.90
49441;DHT22;35317;51.978;6.296;2023-08-12T18:02:28;23.20;76.50
49441;DHT22;35317;51.978;6.296;2023-08-12T18:07:28;23.10;77.30
49441;DHT22;35317;51.978;6.296;2023-08-12T18:12:29;23.00;78.20
49441;DHT22;35317;51.978;6.296;2023-08-12T18:17:30;22.90;78.70
49441;DHT22;35317;51.978;6.296;2023-08-12T18:22:31;22.70;79.10
49441;DHT22;35317;51.978;6.296;2023-08-12T18:27:32;22.60;79.10
49441;DHT22;35317;51.978;6.296;2023-08-12T18:32:32;22.40;79.00
49441;DHT22;35317;51.978;6.296;2023-08-12T18:37:33;22.30;79.10
49441;DHT22;35317;51.978;6.296;2023-08-12T18:42:36;22.20;78.90
49441;DHT22;35317;51.978;6.296;2023-08-12T18:47:37;22.00;79.10
49441;DHT22;35317;51.978;6.296;2023-08-12T18:52:38;21.90;80.30
49441;DHT22;35317;51.978;6.296;2023-08-12T18:57:39;21.60;81.10
49441;DHT22;35317;51.978;6.296;2023-08-12T19:02:40;21.40;81.40
49441;DHT22;35317;51.978;6.296;2023-08-12T19:07:41;21.30;82.00
49441;DHT22;35317;51.978;6.296;2023-08-12T19:12:43;21.10;82.20
49441;DHT22;35317;51.978;6.296;2023-08-12T19:17:44;20.80;83.10
49441;DHT22;35317;51.978;6.296;2023-08-12T19:22:46;20.70;84.20
49441;DHT22;35317;51.978;6.296;2023-08-12T19:27:47;20.50;85.00
49441;DHT22;35317;51.978;6.296;2023-08-12T19:32:49;20.30;86.40
49441;DHT22;35317;51.978;6.296;2023-08-12T19:37:54;20.00;87.00
49441;DHT22;35317;51.978;6.296;2023-08-12T19:42:56;19.80;87.80
49441;DHT22;35317;51.978;6.296;2023-08-12T19:47:57;19.60;89.30
49441;DHT22;35317;51.978;6.296;2023-08-12T19:52:58;19.50;90.00
49441;DHT22;35317;51.978;6.296;2023-08-12T19:57:59;19.40;90.50
49441;DHT22;35317;51.978;6.296;2023-08-12T20:03:00;19.20;91.00
49441;DHT22;35317;51.978;6.296;2023-08-12T20:08:00;19.10;91.30
49441;DHT22;35317;51.978;6.296;2023-08-12T20:13:01;19.00;91.70
49441;DHT22;35317;51.978;6.296;2023-08-12T20:18:02;18.90;92.20
49441;DHT22;35317;51.978;6.296;2023-08-12T20:23:04;18.80;92.60
49441;DHT22;35317;51.978;6.296;2023-08-12T20:28:05;18.70;93.00
49441;DHT22;35317;51.978;6.296;2023-08-12T20:33:06;18.70;93.40
49441;DHT22;35317;51.978;6.296;2023-08-12T20:38:07;18.60;93.70
49441;DHT22;35317;51.978;6.296;2023-08-12T20:43:07;18.60;94.00
49441;DHT22;35317;51.978;6.296;2023-08-12T20:48:09;18.50;94.40
49441;DHT22;35317;51.978;6.296;2023-08-12T20:53:10;18.50;94.70
49441;DHT22;35317;51.978;6.296;2023-08-12T20:58:11;18.40;95.00
49441;DHT22;35317;51.978;6.296;2023-08-12T21:03:11;18.40;95.40
49441;DHT22;35317;51.978;6.296;2023-08-12T21:08:12;18.40;95.70
49441;DHT22;35317;51.978;6.296;2023-08-12T21:13:13;18.40;96.00
49441;DHT22;35317;51.978;6.296;2023-08-12T21:18:14;18.30;96.20
49441;DHT22;35317;51.978;6.296;2023-08-12T21:23:14;18.20;96.50
49441;DHT22;35317;51.978;6.296;2023-08-12T21:28:15;18.20;96.80
49441;DHT22;35317;51.978;6.296;2023-08-12T21:33:16;18.10;97.10
49441;DHT22;35317;51.978;6.296;2023-08-12T21:38:17;18.00;97.30
49441;DHT22;35317;51.978;6.296;2023-08-12T21:43:17;18.10;97.60
49441;DHT22;35317;51.978;6.296;2023-08-12T21:48:18;18.00;97.80
49441;DHT22;35317;51.978;6.296;2023-08-12T21:53:19;18.00;98.10
49441;DHT22;35317;51.978;6.296;2023-08-12T21:58:20;18.00;98.30
49441;DHT22;35317;51.978;6.296;2023-08-12T22:03:20;17.90;98.50
49441;DHT22;35317;51.978;6.296;2023-08-12T22:08:21;17.80;98.80
49441;DHT22;35317;51.978;6.296;2023-08-12T22:13:22;17.80;99.00
49441;DHT22;35317;51.978;6.296;2023-08-12T22:18:23;17.80;99.20
49441;DHT22;35317;51.978;6.296;2023-08-12T22:23:24;17.70;99.40
49441;DHT22;35317;51.978;6.296;2023-08-12T22:28:24;17.80;99.60
49441;DHT22;35317;51.978;6.296;2023-08-12T22:33:25;17.70;99.70
49441;DHT22;35317;51.978;6.296;2023-08-12T22:38:26;17.70;99.80
49441;DHT22;35317;51.978;6.296;2023-08-12T22:43:27;17.70;99.90
49441;DHT22;35317;51.978;6.296;2023-08-12T22:48:27;17.70;99.90
49441;DHT22;35317;51.978;6.296;2023-08-12T22:53:28;17.70;99.90
49441;DHT22;35317;51.978;6.296;2023-08-12T22:58:29;17.70;99.90
49441;DHT22;35317;51.978;6.296;2023-08-12T23:03:30;17.70;99.90
49441;DHT22;35317;51.978;6.296;2023-08-12T23:08:31;17.60;99.90
49441;DHT22;35317;51.978;6.296;2023-08-12T23:13:32;17.60;99.90
49441;DHT22;35317;51.978;6.296;2023-08-12T23:18:33;17.70;99.60
49441;DHT22;35317;51.978;6.296;2023-08-12T23:23:33;17.70;99.20
49441;DHT22;35317;51.978;6.296;2023-08-12T23:28:34;17.70;98.90
49441;DHT22;35317;51.978;6.296;2023-08-12T23:33:35;17.80;98.50
49441;DHT22;35317;51.978;6.296;2023-08-12T23:38:36;17.80;98.30
49441;DHT22;35317;51.978;6.296;2023-08-12T23:43:36;17.80;98.20
49441;DHT22;35317;51.978;6.296;2023-08-12T23:48:37;17.80;98.00
49441;DHT22;35317;51.978;6.296;2023-08-12T23:53:38;17.90;97.90
49441;DHT22;35317;51.978;6.296;2023-08-12T23:58:39;17.90;98.00
